Time,TemperatureF,DewpointF,PressureIn,WindDirection,WindDirectionDegrees,WindSpeedMPH,WindSpeedGustMPH,Humidity,HourlyPrecipIn,Conditions,Clouds,dailyrainin,SoftwareType,DateUTC
2013-05-29 00:08:00,48.7,45.0,30.16,ESE,109,0.0,0.0,86,0.00,,,0.00,weatherlink.com 1.10,2013-05-29 04:08:00,
2013-05-29 00:23:00,48.7,45.0,30.16,ESE,109,0.0,0.0,86,0.00,,,0.00,weatherlink.com 1.10,2013-05-29 04:23:00,
2013-05-29 00:38:00,48.8,45.0,30.16,ESE,109,0.0,0.0,86,0.00,,,0.00,weatherlink.com 1.10,2013-05-29 04:38:00,
2013-05-29 00:55:00,48.9,45.0,30.16,ESE,109,0.0,0.0,86,0.00,,,0.00,weatherlink.com 1.10,2013-05-29 04:55:00,
2013-05-29 01:08:00,49.1,45.0,30.15,ESE,109,0.0,0.0,87,0.00,,,0.00,weatherlink.com 1.10,2013-05-29 05:08:00,
2013-05-29 01:23:00,49.0,45.0,30.16,ESE,109,0.0,0.0,87,0.00,,,0.00,weatherlink.com 1.10,2013-05-29 05:23:00,
2013-05-29 01:38:00,49.2,45.0,30.16,ESE,109,0.0,0.0,86,0.00,,,0.00,weatherlink.com 1.10,2013-05-29 05:38:00,
2013-05-29 01:53:00,49.2,46.0,30.15,ESE,109,0.0,0.0,87,0.00,,,0.00,weatherlink.com 1.10,2013-05-29 05:53:00,
2013-05-29 02:08:00,49.1,46.0,30.14,ESE,109,0.0,0.0,88,0.00,,,0.00,weatherlink.com 1.10,2013-05-29 06:08:00,
2013-05-29 02:23:00,49.2,46.0,30.14,ESE,109,0.0,0.0,88,0.00,,,0.00,weatherlink.com 1.10,2013-05-29 06:23:00,
2013-05-29 02:38:00,49.2,46.0,30.13,ESE,109,0.0,0.0,88,0.00,,,0.00,weatherlink.com 1.10,2013-05-29 06:38:00,
2013-05-29 02:53:00,49.4,46.0,30.12,ESE,109,0.0,1.0,88,0.00,,,0.00,weatherlink.com 1.10,2013-05-29 06:53:00,
2013-05-29 03:08:00,49.4,46.0,30.12,ESE,109,0.0,0.0,87,0.00,,,0.00,weatherlink.com 1.10,2013-05-29 07:08:00,
2013-05-29 03:23:00,49.5,46.0,30.12,ESE,109,0.0,0.0,88,0.00,,,0.00,weatherlink.com 1.10,2013-05-29 07:23:00,
2013-05-29 03:38:00,49.6,47.0,30.12,ESE,109,0.0,0.0,89,0.00,,,0.00,weatherlink.com 1.10,2013-05-29 07:38:00,
2013-05-29 03:53:00,49.9,47.0,30.12,ESE,109,0.0,0.0,89,0.00,,,0.00,weatherlink.com 1.10,2013-05-29 07:53:00,
2013-05-29 04:08:00,50.1,47.0,30.12,ESE,109,0.0,0.0,88,0.00,,,0.00,weatherlink.com 1.10,2013-05-29 08:08:00,
2013-05-29 04:23:00,50.3,47.0,30.12,ESE,109,0.0,0.0,89,0.00,,,0.00,weatherlink.com 1.10,2013-05-29 08:23:00,
2013-05-29 04:38:00,50.1,47.0,30.11,ESE,109,0.0,0.0,89,0.00,,,0.00,weatherlink.com 1.10,2013-05-29 08:38:00,
2013-05-29 04:53:00,50.1,47.0,30.12,ESE,109,0.0,0.0,90,0.00,,,0.00,weatherlink.com 1.10,2013-05-29 08:53:00,
2013-05-29 05:08:00,50.0,48.0,30.12,ESE,109,0.0,0.0,92,0.00,,,0.00,weatherlink.com 1.10,2013-05-29 09:08:00,
2013-05-29 05:23:00,50.1,48.0,30.11,ESE,109,0.0,0.0,93,0.00,,,0.00,weatherlink.com 1.10,2013-05-29 09:23:00,
2013-05-29 05:38:00,50.0,48.0,30.12,ESE,109,0.0,0.0,92,0.00,,,0.00,weatherlink.com 1.10,2013-05-29 09:38:00,
2013-05-29 05:53:00,50.0,48.0,30.13,ESE,109,0.0,0.0,92,0.00,,,0.00,weatherlink.com 1.10,2013-05-29 09:53:00,
2013-05-29 06:08:00,50.1,48.0,30.13,ESE,109,0.0,1.0,92,0.01,,,0.01,weatherlink.com 1.10,2013-05-29 10:08:00,
2013-05-29 06:23:00,50.2,48.0,30.12,ESE,109,0.0,0.0,93,0.01,,,0.01,weatherlink.com 1.10,2013-05-29 10:23:00,
2013-05-29 06:38:00,50.3,48.0,30.12,ESE,109,0.0,0.0,93,0.01,,,0.01,weatherlink.com 1.10,2013-05-29 10:38:00,
2013-05-29 06:53:00,50.2,48.0,30.12,ESE,109,0.0,1.0,93,0.01,,,0.01,weatherlink.com 1.10,2013-05-29 10:53:00,
2013-05-29 07:08:00,50.2,48.0,30.12,ESE,109,0.0,2.0,93,0.00,,,0.01,weatherlink.com 1.10,2013-05-29 11:08:00,
2013-05-29 07:23:00,50.2,48.0,30.12,ESE,109,0.0,0.0,93,0.00,,,0.01,weatherlink.com 1.10,2013-05-29 11:23:00,
2013-05-29 07:38:00,50.3,48.0,30.12,ESE,109,0.0,0.0,93,0.01,,,0.02,weatherlink.com 1.10,2013-05-29 11:38:00,
2013-05-29 07:53:00,50.4,49.0,30.12,ESE,109,0.0,0.0,94,0.02,,,0.03,weatherlink.com 1.10,2013-05-29 11:53:00,
2013-05-29 08:10:00,50.3,49.0,30.12,NNW,338,0.0,3.0,94,0.03,,,0.04,weatherlink.com 1.10,2013-05-29 12:10:00,
2013-05-29 08:23:00,50.1,49.0,30.12,NNW,338,0.0,1.0,94,0.03,,,0.04,weatherlink.com 1.10,2013-05-29 12:23:00,
2013-05-29 08:38:00,50.0,48.0,30.11,NNW,338,0.0,1.0,94,0.02,,,0.04,weatherlink.com 1.10,2013-05-29 12:38:00,
2013-05-29 08:53:00,50.0,49.0,30.12,NNW,338,0.0,1.0,95,0.01,,,0.04,weatherlink.com 1.10,2013-05-29 12:53:00,
2013-05-29 09:08:00,50.0,49.0,30.11,NNW,338,0.0,1.0,95,0.01,,,0.04,weatherlink.com 1.10,2013-05-29 13:08:00,
2013-05-29 09:23:00,50.4,49.0,30.11,NNW,338,0.0,1.0,95,0.00,,,0.04,weatherlink.com 1.10,2013-05-29 13:23:00,
2013-05-29 09:38:00,50.3,49.0,30.11,NW,304,0.0,3.0,95,0.01,,,0.05,weatherlink.com 1.10,2013-05-29 13:38:00,
2013-05-29 09:54:00,50.6,50.0,30.10,WNW,303,0.0,3.0,96,0.02,,,0.06,weatherlink.com 1.10,2013-05-29 13:54:00,
2013-05-29 10:09:00,50.9,50.0,30.10,WNW,303,0.0,1.0,96,0.05,,,0.09,weatherlink.com 1.10,2013-05-29 14:09:00,
2013-05-29 10:24:00,51.1,50.0,30.09,WNW,303,0.0,1.0,96,0.05,,,0.10,weatherlink.com 1.10,2013-05-29 14:24:00,
2013-05-29 10:39:00,51.4,50.0,30.09,WNW,303,0.0,0.0,96,0.07,,,0.12,weatherlink.com 1.10,2013-05-29 14:39:00,
2013-05-29 10:54:00,51.8,51.0,30.09,WNW,303,0.0,0.0,96,0.08,,,0.14,weatherlink.com 1.10,2013-05-29 14:54:00,
2013-05-29 11:09:00,52.3,51.0,30.07,WNW,303,0.0,0.0,96,0.07,,,0.16,weatherlink.com 1.10,2013-05-29 15:09:00,
2013-05-29 11:24:00,53.0,52.0,30.06,North,355,0.0,2.0,96,0.05,,,0.16,weatherlink.com 1.10,2013-05-29 15:24:00,
2013-05-29 11:39:00,53.2,52.0,30.03,East,89,2.0,8.0,95,0.04,,,0.16,weatherlink.com 1.10,2013-05-29 15:39:00,
2013-05-29 11:54:00,53.5,52.0,30.07,East,98,0.0,1.0,96,0.03,,,0.17,weatherlink.com 1.10,2013-05-29 15:54:00,
2013-05-29 12:09:00,53.9,53.0,30.07,East,98,0.0,0.0,96,0.01,,,0.17,weatherlink.com 1.10,2013-05-29 16:09:00,
2013-05-29 12:39:00,54.2,53.0,30.07,East,98,0.0,1.0,94,0.01,,,0.17,weatherlink.com 1.10,2013-05-29 16:39:00,
2013-05-29 12:54:00,54.3,53.0,30.08,East,98,0.0,1.0,94,0.00,,,0.17,weatherlink.com 1.10,2013-05-29 16:54:00,
2013-05-29 13:09:00,54.5,53.0,30.07,East,98,0.0,1.0,95,0.00,,,0.17,weatherlink.com 1.10,2013-05-29 17:09:00,
2013-05-29 13:24:00,54.7,53.0,30.06,East,98,0.0,1.0,94,0.00,,,0.17,weatherlink.com 1.10,2013-05-29 17:24:00,
2013-05-29 13:39:00,54.9,53.0,30.06,East,98,0.0,1.0,94,0.00,,,0.17,weatherlink.com 1.10,2013-05-29 17:39:00,
2013-05-29 13:54:00,55.3,54.0,30.06,East,98,3.0,3.0,94,0.00,,,0.17,weatherlink.com 1.10,2013-05-29 17:54:00,
2013-05-29 14:09:00,55.3,53.0,30.06,East,98,0.0,1.0,93,0.00,,,0.17,weatherlink.com 1.10,2013-05-29 18:09:00,
2013-05-29 14:25:00,55.1,54.0,30.05,East,98,1.0,2.0,94,0.00,,,0.17,weatherlink.com 1.10,2013-05-29 18:25:00,
2013-05-29 14:39:00,55.1,54.0,30.05,East,98,0.0,3.0,94,0.00,,,0.17,weatherlink.com 1.10,2013-05-29 18:39:00,
2013-05-29 14:54:00,55.3,54.0,30.05,East,98,0.0,1.0,94,0.00,,,0.17,weatherlink.com 1.10,2013-05-29 18:54:00,
2013-05-29 15:09:00,55.4,54.0,30.05,East,98,0.0,1.0,94,0.00,,,0.17,weatherlink.com 1.10,2013-05-29 19:09:00,
2013-05-29 15:24:00,55.8,54.0,30.05,East,98,0.0,1.0,94,0.00,,,0.17,weatherlink.com 1.10,2013-05-29 19:24:00,
2013-05-29 15:39:00,55.9,54.0,30.05,East,98,0.0,0.0,94,0.00,,,0.17,weatherlink.com 1.10,2013-05-29 19:39:00,
2013-05-29 15:54:00,56.0,54.0,30.04,East,98,0.0,1.0,93,0.00,,,0.17,weatherlink.com 1.10,2013-05-29 19:54:00,
2013-05-29 16:09:00,56.2,54.0,30.04,East,98,0.0,2.0,93,0.00,,,0.17,weatherlink.com 1.10,2013-05-29 20:09:00,
2013-05-29 16:24:00,56.2,54.0,30.04,East,98,0.0,1.0,93,0.00,,,0.17,weatherlink.com 1.10,2013-05-29 20:24:00,
2013-05-29 16:39:00,56.2,54.0,30.04,East,98,0.0,0.0,93,0.00,,,0.17,weatherlink.com 1.10,2013-05-29 20:39:00,
2013-05-29 16:54:00,56.0,54.0,30.03,East,98,0.0,0.0,94,0.00,,,0.17,weatherlink.com 1.10,2013-05-29 20:54:00,
2013-05-29 17:09:00,56.0,55.0,30.03,East,98,0.0,1.0,95,0.01,,,0.18,weatherlink.com 1.10,2013-05-29 21:09:00,
2013-05-29 17:24:00,56.0,55.0,30.03,East,98,0.0,1.0,95,0.01,,,0.18,weatherlink.com 1.10,2013-05-29 21:24:00,
2013-05-29 17:39:00,56.0,55.0,30.03,East,98,0.0,0.0,95,0.01,,,0.18,weatherlink.com 1.10,2013-05-29 21:39:00,
2013-05-29 17:54:00,55.9,55.0,30.02,East,98,0.0,0.0,95,0.01,,,0.18,weatherlink.com 1.10,2013-05-29 21:54:00,
2013-05-29 18:09:00,55.9,55.0,30.01,East,98,0.0,0.0,96,0.00,,,0.18,weatherlink.com 1.10,2013-05-29 22:09:00,
2013-05-29 18:24:00,56.0,55.0,30.02,East,98,0.0,0.0,96,0.00,,,0.18,weatherlink.com 1.10,2013-05-29 22:24:00,
2013-05-29 18:39:00,56.2,55.0,30.01,East,98,0.0,0.0,96,0.00,,,0.18,weatherlink.com 1.10,2013-05-29 22:39:00,
2013-05-29 18:54:00,56.1,55.0,30.00,East,98,0.0,1.0,96,0.00,,,0.18,weatherlink.com 1.10,2013-05-29 22:54:00,
2013-05-29 19:09:00,56.2,55.0,30.01,East,98,0.0,0.0,96,0.00,,,0.18,weatherlink.com 1.10,2013-05-29 23:09:00,
2013-05-29 19:24:00,56.1,55.0,30.01,East,98,0.0,0.0,96,0.00,,,0.18,weatherlink.com 1.10,2013-05-29 23:24:00,
2013-05-29 19:39:00,56.0,55.0,30.01,East,98,0.0,0.0,96,0.00,,,0.18,weatherlink.com 1.10,2013-05-29 23:39:00,
2013-05-29 19:54:00,55.9,55.0,30.01,East,98,0.0,0.0,96,0.00,,,0.18,weatherlink.com 1.10,2013-05-29 23:54:00,
2013-05-29 20:09:00,55.9,55.0,30.01,East,98,0.0,0.0,97,0.00,,,0.18,weatherlink.com 1.10,2013-05-30 00:09:00,
2013-05-29 20:24:00,55.8,55.0,30.01,East,98,0.0,0.0,97,0.00,,,0.18,weatherlink.com 1.10,2013-05-30 00:24:00,
2013-05-29 20:39:00,55.8,55.0,30.00,East,98,0.0,0.0,97,0.00,,,0.18,weatherlink.com 1.10,2013-05-30 00:39:00,
2013-05-29 20:54:00,55.9,55.0,30.00,East,98,0.0,0.0,97,0.00,,,0.18,weatherlink.com 1.10,2013-05-30 00:54:00,
2013-05-29 21:09:00,55.7,55.0,30.00,East,98,0.0,0.0,97,0.00,,,0.18,weatherlink.com 1.10,2013-05-30 01:09:00,
2013-05-29 21:24:00,55.6,55.0,30.00,East,98,0.0,0.0,97,0.00,,,0.18,weatherlink.com 1.10,2013-05-30 01:24:00,
2013-05-29 21:40:00,55.7,55.0,29.99,East,98,0.0,0.0,97,0.03,,,0.21,weatherlink.com 1.10,2013-05-30 01:40:00,
2013-05-29 21:54:00,55.7,55.0,30.00,East,98,0.0,3.0,97,0.14,,,0.32,weatherlink.com 1.10,2013-05-30 01:54:00,
2013-05-29 22:09:00,55.6,55.0,30.00,East,98,0.0,0.0,97,0.22,,,0.40,weatherlink.com 1.10,2013-05-30 02:09:00,
2013-05-29 22:24:00,55.6,55.0,29.99,East,98,0.0,0.0,98,0.22,,,0.40,weatherlink.com 1.10,2013-05-30 02:24:00,
2013-05-29 22:39:00,55.6,55.0,30.00,East,98,0.0,0.0,98,0.19,,,0.40,weatherlink.com 1.10,2013-05-30 02:39:00,
2013-05-29 22:54:00,55.6,55.0,30.00,East,98,0.0,0.0,98,0.08,,,0.40,weatherlink.com 1.10,2013-05-30 02:54:00,
2013-05-29 23:09:00,55.7,55.0,30.00,East,98,0.0,0.0,98,0.00,,,0.40,weatherlink.com 1.10,2013-05-30 03:09:00,
2013-05-29 23:24:00,55.7,55.0,30.00,East,98,0.0,0.0,98,0.00,,,0.40,weatherlink.com 1.10,2013-05-30 03:24:00,
2013-05-29 23:39:00,55.5,55.0,30.00,East,98,0.0,0.0,98,0.00,,,0.40,weatherlink.com 1.10,2013-05-30 03:39:00,
2013-05-29 23:55:00,55.6,55.0,30.00,East,98,0.0,0.0,98,0.00,,,0.40,weatherlink.com 1.10,2013-05-30 03:55:00,